Amlin, Ohio
Current Conditions -  °F | °C
As of 6:53 PM on Sunday 21 Dec 2014 (Local Time) from KOSU Reporting Station
Clear Clear  
Wind Chill: -5°   Ceiling: Unl
Heat Index: -2°   Visibility: 8mi
Dew Point: -6°   Wind: 5mph
Humidity: 75%   Direction: 90°E
Pressure: 30.19"   Gusts: NA
Location:  40.08°N, 83.18°W
Report Text: KOSU 212353Z 09004KT 8SM CLR M02/M06 A3019 RMK AO2 SLP235 T10171056 10028 21017 58002
Loading
Personal Weather Stations






























Interactive Weather Map New forecast layout! Learn more

10-Day Weather Forecast

Advertisements
Track Severe Weather on mobile